sensor_id;sensor_type;location;lat;lon;timestamp;P1;durP1;ratioP1;P2;durP2;ratioP2
44130;SDS011;29792;48.726;9.248;2023-09-07T00:00:08;1.55;;;1.45;;
44130;SDS011;29792;48.726;9.248;2023-09-07T00:02:35;3.38;;;2.05;;
44130;SDS011;29792;48.726;9.248;2023-09-07T00:05:01;2.30;;;1.65;;
44130;SDS011;29792;48.726;9.248;2023-09-07T00:07:26;3.05;;;2.40;;
44130;SDS011;29792;48.726;9.248;2023-09-07T00:09:51;3.10;;;1.83;;
44130;SDS011;29792;48.726;9.248;2023-09-07T00:12:16;2.67;;;2.22;;
44130;SDS011;29792;48.726;9.248;2023-09-07T00:14:41;1.48;;;1.15;;
44130;SDS011;29792;48.726;9.248;2023-09-07T00:17:07;1.65;;;1.55;;
44130;SDS011;29792;48.726;9.248;2023-09-07T00:19:32;2.10;;;1.90;;
44130;SDS011;29792;48.726;9.248;2023-09-07T00:21:58;2.75;;;1.65;;
44130;SDS011;29792;48.726;9.248;2023-09-07T00:24:24;2.95;;;1.95;;
44130;SDS011;29792;48.726;9.248;2023-09-07T00:26:49;1.95;;;1.73;;
44130;SDS011;29792;48.726;9.248;2023-09-07T00:29:14;2.00;;;1.60;;
44130;SDS011;29792;48.726;9.248;2023-09-07T00:31:39;2.58;;;2.10;;
44130;SDS011;29792;48.726;9.248;2023-09-07T00:34:06;2.72;;;1.45;;
44130;SDS011;29792;48.726;9.248;2023-09-07T00:36:31;2.80;;;1.90;;
44130;SDS011;29792;48.726;9.248;2023-09-07T00:38:56;3.15;;;2.40;;
44130;SDS011;29792;48.726;9.248;2023-09-07T00:41:22;2.45;;;1.80;;
44130;SDS011;29792;48.726;9.248;2023-09-07T00:43:47;6.28;;;2.22;;
44130;SDS011;29792;48.726;9.248;2023-09-07T00:46:12;2.55;;;1.88;;
44130;SDS011;29792;48.726;9.248;2023-09-07T00:48:38;3.28;;;1.98;;
44130;SDS011;29792;48.726;9.248;2023-09-07T00:51:03;2.33;;;1.77;;
44130;SDS011;29792;48.726;9.248;2023-09-07T00:53:29;2.53;;;2.33;;
44130;SDS011;29792;48.726;9.248;2023-09-07T00:55:54;2.22;;;1.90;;
44130;SDS011;29792;48.726;9.248;2023-09-07T00:58:20;3.05;;;2.30;;
44130;SDS011;29792;48.726;9.248;2023-09-07T01:00:46;3.28;;;2.13;;
44130;SDS011;29792;48.726;9.248;2023-09-07T01:03:11;3.70;;;2.50;;
44130;SDS011;29792;48.726;9.248;2023-09-07T01:05:41;2.15;;;1.95;;
44130;SDS011;29792;48.726;9.248;2023-09-07T01:08:13;2.30;;;2.10;;
44130;SDS011;29792;48.726;9.248;2023-09-07T01:10:45;2.38;;;2.17;;
44130;SDS011;29792;48.726;9.248;2023-09-07T01:13:10;2.65;;;2.30;;
44130;SDS011;29792;48.726;9.248;2023-09-07T01:15:35;4.28;;;2.28;;
44130;SDS011;29792;48.726;9.248;2023-09-07T01:18:02;3.10;;;2.00;;
44130;SDS011;29792;48.726;9.248;2023-09-07T01:20:28;2.75;;;2.55;;
44130;SDS011;29792;48.726;9.248;2023-09-07T01:22:55;3.88;;;2.38;;
44130;SDS011;29792;48.726;9.248;2023-09-07T01:25:21;3.63;;;2.72;;
44130;SDS011;29792;48.726;9.248;2023-09-07T01:27:46;2.30;;;1.95;;
44130;SDS011;29792;48.726;9.248;2023-09-07T01:30:12;3.38;;;2.72;;
44130;SDS011;29792;48.726;9.248;2023-09-07T01:32:38;3.45;;;2.35;;
44130;SDS011;29792;48.726;9.248;2023-09-07T01:35:04;2.63;;;2.33;;
44130;SDS011;29792;48.726;9.248;2023-09-07T01:37:31;4.90;;;3.03;;
44130;SDS011;29792;48.726;9.248;2023-09-07T01:39:57;3.85;;;3.38;;
44130;SDS011;29792;48.726;9.248;2023-09-07T01:42:22;4.07;;;2.85;;
44130;SDS011;29792;48.726;9.248;2023-09-07T01:44:47;2.95;;;2.58;;
44130;SDS011;29792;48.726;9.248;2023-09-07T01:47:12;3.45;;;2.58;;
44130;SDS011;29792;48.726;9.248;2023-09-07T01:49:38;3.95;;;3.33;;
44130;SDS011;29792;48.726;9.248;2023-09-07T01:52:03;4.20;;;3.78;;
44130;SDS011;29792;48.726;9.248;2023-09-07T01:54:28;3.70;;;2.95;;
44130;SDS011;29792;48.726;9.248;2023-09-07T01:56:54;4.45;;;3.30;;
44130;SDS011;29792;48.726;9.248;2023-09-07T01:59:19;3.92;;;3.20;;
44130;SDS011;29792;48.726;9.248;2023-09-07T02:01:44;3.60;;;3.17;;
44130;SDS011;29792;48.726;9.248;2023-09-07T02:04:09;4.82;;;3.17;;
44130;SDS011;29792;48.726;9.248;2023-09-07T02:06:35;4.57;;;2.78;;
44130;SDS011;29792;48.726;9.248;2023-09-07T02:09:00;3.88;;;2.53;;
44130;SDS011;29792;48.726;9.248;2023-09-07T02:11:25;4.88;;;3.17;;
44130;SDS011;29792;48.726;9.248;2023-09-07T02:13:50;3.30;;;3.00;;
44130;SDS011;29792;48.726;9.248;2023-09-07T02:16:16;3.63;;;3.33;;
44130;SDS011;29792;48.726;9.248;2023-09-07T02:18:41;5.97;;;3.17;;
44130;SDS011;29792;48.726;9.248;2023-09-07T02:21:11;3.78;;;3.08;;
44130;SDS011;29792;48.726;9.248;2023-09-07T02:23:36;5.82;;;4.28;;
44130;SDS011;29792;48.726;9.248;2023-09-07T02:26:03;3.40;;;3.10;;
44130;SDS011;29792;48.726;9.248;2023-09-07T02:28:29;5.38;;;3.50;;
44130;SDS011;29792;48.726;9.248;2023-09-07T02:30:54;4.47;;;4.03;;
44130;SDS011;29792;48.726;9.248;2023-09-07T02:33:19;4.43;;;3.35;;
44130;SDS011;29792;48.726;9.248;2023-09-07T02:35:45;4.10;;;3.28;;
44130;SDS011;29792;48.726;9.248;2023-09-07T02:38:12;6.32;;;3.08;;
44130;SDS011;29792;48.726;9.248;2023-09-07T02:40:41;4.85;;;3.58;;
44130;SDS011;29792;48.726;9.248;2023-09-07T02:43:08;4.72;;;3.15;;
44130;SDS011;29792;48.726;9.248;2023-09-07T02:45:34;3.50;;;2.95;;
44130;SDS011;29792;48.726;9.248;2023-09-07T02:47:59;4.95;;;3.50;;
44130;SDS011;29792;48.726;9.248;2023-09-07T02:50:24;4.70;;;3.83;;
44130;SDS011;29792;48.726;9.248;2023-09-07T02:52:50;6.50;;;4.20;;
44130;SDS011;29792;48.726;9.248;2023-09-07T02:55:15;4.80;;;3.50;;
44130;SDS011;29792;48.726;9.248;2023-09-07T02:57:41;5.63;;;3.72;;
44130;SDS011;29792;48.726;9.248;2023-09-07T03:00:06;3.58;;;3.22;;
44130;SDS011;29792;48.726;9.248;2023-09-07T03:02:34;4.82;;;3.35;;
44130;SDS011;29792;48.726;9.248;2023-09-07T03:05:00;3.92;;;3.42;;
44130;SDS011;29792;48.726;9.248;2023-09-07T03:07:25;3.90;;;3.38;;
44130;SDS011;29792;48.726;9.248;2023-09-07T03:09:51;3.50;;;3.20;;
44130;SDS011;29792;48.726;9.248;2023-09-07T03:12:17;4.68;;;4.18;;
44130;SDS011;29792;48.726;9.248;2023-09-07T03:14:43;3.42;;;3.05;;
44130;SDS011;29792;48.726;9.248;2023-09-07T03:17:09;6.32;;;5.18;;
44130;SDS011;29792;48.726;9.248;2023-09-07T03:19:35;5.05;;;3.80;;
44130;SDS011;29792;48.726;9.248;2023-09-07T03:22:01;3.88;;;3.38;;
44130;SDS011;29792;48.726;9.248;2023-09-07T03:24:26;4.50;;;4.10;;
44130;SDS011;29792;48.726;9.248;2023-09-07T03:26:51;5.28;;;3.80;;
44130;SDS011;29792;48.726;9.248;2023-09-07T03:29:17;6.43;;;3.63;;
44130;SDS011;29792;48.726;9.248;2023-09-07T03:31:42;5.55;;;3.70;;
44130;SDS011;29792;48.726;9.248;2023-09-07T03:34:07;3.95;;;3.25;;
44130;SDS011;29792;48.726;9.248;2023-09-07T03:36:32;5.13;;;3.72;;
44130;SDS011;29792;48.726;9.248;2023-09-07T03:38:58;4.75;;;4.05;;
44130;SDS011;29792;48.726;9.248;2023-09-07T03:41:23;5.25;;;3.67;;
44130;SDS011;29792;48.726;9.248;2023-09-07T03:43:49;5.68;;;4.38;;
44130;SDS011;29792;48.726;9.248;2023-09-07T03:46:14;5.43;;;3.90;;
44130;SDS011;29792;48.726;9.248;2023-09-07T03:48:40;4.85;;;4.43;;
44130;SDS011;29792;48.726;9.248;2023-09-07T03:51:05;4.97;;;4.45;;
44130;SDS011;29792;48.726;9.248;2023-09-07T03:53:31;5.25;;;4.25;;
44130;SDS011;29792;48.726;9.248;2023-09-07T03:55:56;5.30;;;4.80;;
44130;SDS011;29792;48.726;9.248;2023-09-07T03:58:22;5.53;;;5.03;;
44130;SDS011;29792;48.726;9.248;2023-09-07T04:00:47;5.80;;;4.45;;
44130;SDS011;29792;48.726;9.248;2023-09-07T04:03:13;6.07;;;5.00;;
44130;SDS011;29792;48.726;9.248;2023-09-07T04:05:38;5.97;;;4.90;;
44130;SDS011;29792;48.726;9.248;2023-09-07T04:08:03;5.00;;;4.47;;
44130;SDS011;29792;48.726;9.248;2023-09-07T04:10:29;5.85;;;5.18;;
44130;SDS011;29792;48.726;9.248;2023-09-07T04:12:54;5.10;;;4.60;;
44130;SDS011;29792;48.726;9.248;2023-09-07T04:15:20;5.03;;;4.43;;
44130;SDS011;29792;48.726;9.248;2023-09-07T04:17:45;7.80;;;5.82;;
44130;SDS011;29792;48.726;9.248;2023-09-07T04:20:10;8.18;;;5.90;;
44130;SDS011;29792;48.726;9.248;2023-09-07T04:22:39;5.60;;;5.15;;
44130;SDS011;29792;48.726;9.248;2023-09-07T04:25:05;8.23;;;5.13;;
44130;SDS011;29792;48.726;9.248;2023-09-07T04:27:31;5.88;;;5.28;;
44130;SDS011;29792;48.726;9.248;2023-09-07T04:29:56;6.05;;;5.32;;
44130;SDS011;29792;48.726;9.248;2023-09-07T04:32:21;6.28;;;5.63;;
44130;SDS011;29792;48.726;9.248;2023-09-07T04:34:47;6.57;;;5.20;;
44130;SDS011;29792;48.726;9.248;2023-09-07T04:37:12;5.20;;;4.50;;
44130;SDS011;29792;48.726;9.248;2023-09-07T04:39:37;6.00;;;5.45;;
44130;SDS011;29792;48.726;9.248;2023-09-07T04:42:02;6.60;;;5.68;;
44130;SDS011;29792;48.726;9.248;2023-09-07T04:44:28;6.03;;;4.15;;
44130;SDS011;29792;48.726;9.248;2023-09-07T04:46:56;5.95;;;5.20;;
44130;SDS011;29792;48.726;9.248;2023-09-07T04:49:22;5.88;;;4.97;;
44130;SDS011;29792;48.726;9.248;2023-09-07T04:51:48;5.40;;;4.88;;
44130;SDS011;29792;48.726;9.248;2023-09-07T04:54:14;6.95;;;4.32;;
44130;SDS011;29792;48.726;9.248;2023-09-07T04:56:41;7.15;;;5.25;;
44130;SDS011;29792;48.726;9.248;2023-09-07T04:59:06;4.70;;;4.03;;
44130;SDS011;29792;48.726;9.248;2023-09-07T05:01:31;5.38;;;4.22;;
44130;SDS011;29792;48.726;9.248;2023-09-07T05:03:57;6.00;;;4.80;;
44130;SDS011;29792;48.726;9.248;2023-09-07T05:06:22;5.80;;;4.45;;
44130;SDS011;29792;48.726;9.248;2023-09-07T05:08:48;5.75;;;3.85;;
44130;SDS011;29792;48.726;9.248;2023-09-07T05:11:13;4.57;;;4.15;;
44130;SDS011;29792;48.726;9.248;2023-09-07T05:13:38;5.00;;;4.50;;
44130;SDS011;29792;48.726;9.248;2023-09-07T05:16:03;5.03;;;3.90;;
44130;SDS011;29792;48.726;9.248;2023-09-07T05:18:29;5.45;;;4.75;;
44130;SDS011;29792;48.726;9.248;2023-09-07T05:20:55;4.43;;;3.80;;
44130;SDS011;29792;48.726;9.248;2023-09-07T05:23:20;5.35;;;4.85;;
44130;SDS011;29792;48.726;9.248;2023-09-07T05:25:48;5.82;;;5.05;;
44130;SDS011;29792;48.726;9.248;2023-09-07T05:28:15;11.02;;;9.45;;
44130;SDS011;29792;48.726;9.248;2023-09-07T05:30:42;9.27;;;7.22;;
44130;SDS011;29792;48.726;9.248;2023-09-07T05:33:09;8.77;;;5.43;;
44130;SDS011;29792;48.726;9.248;2023-09-07T05:35:35;6.70;;;5.47;;
44130;SDS011;29792;48.726;9.248;2023-09-07T05:38:00;8.25;;;6.25;;
44130;SDS011;29792;48.726;9.248;2023-09-07T05:40:25;4.90;;;4.40;;
44130;SDS011;29792;48.726;9.248;2023-09-07T05:42:51;5.90;;;5.40;;
44130;SDS011;29792;48.726;9.248;2023-09-07T05:45:16;6.97;;;5.20;;
44130;SDS011;29792;48.726;9.248;2023-09-07T05:47:41;6.07;;;4.35;;
44130;SDS011;29792;48.726;9.248;2023-09-07T05:50:07;5.68;;;5.07;;
44130;SDS011;29792;48.726;9.248;2023-09-07T05:52:32;5.93;;;5.32;;
44130;SDS011;29792;48.726;9.248;2023-09-07T05:54:58;5.40;;;4.68;;
44130;SDS011;29792;48.726;9.248;2023-09-07T05:57:23;8.40;;;5.18;;
44130;SDS011;29792;48.726;9.248;2023-09-07T05:59:48;6.07;;;5.22;;
44130;SDS011;29792;48.726;9.248;2023-09-07T06:02:13;7.03;;;5.20;;
44130;SDS011;29792;48.726;9.248;2023-09-07T06:04:39;5.35;;;4.85;;
44130;SDS011;29792;48.726;9.248;2023-09-07T06:07:04;7.32;;;5.30;;
44130;SDS011;29792;48.726;9.248;2023-09-07T06:09:29;6.57;;;5.50;;
44130;SDS011;29792;48.726;9.248;2023-09-07T06:11:55;9.00;;;6.03;;
44130;SDS011;29792;48.726;9.248;2023-09-07T06:14:20;5.28;;;4.38;;
44130;SDS011;29792;48.726;9.248;2023-09-07T06:16:45;4.82;;;4.28;;
44130;SDS011;29792;48.726;9.248;2023-09-07T06:19:10;6.22;;;4.63;;
44130;SDS011;29792;48.726;9.248;2023-09-07T06:21:36;5.60;;;5.10;;
44130;SDS011;29792;48.726;9.248;2023-09-07T06:24:01;5.88;;;5.38;;
44130;SDS011;29792;48.726;9.248;2023-09-07T06:26:26;5.72;;;5.22;;
44130;SDS011;29792;48.726;9.248;2023-09-07T06:28:51;5.88;;;4.78;;
44130;SDS011;29792;48.726;9.248;2023-09-07T06:31:17;7.35;;;4.88;;
44130;SDS011;29792;48.726;9.248;2023-09-07T06:33:42;5.20;;;4.70;;
44130;SDS011;29792;48.726;9.248;2023-09-07T06:36:07;5.57;;;5.05;;
44130;SDS011;29792;48.726;9.248;2023-09-07T06:38:32;5.82;;;5.00;;
44130;SDS011;29792;48.726;9.248;2023-09-07T06:40:58;5.38;;;4.88;;
44130;SDS011;29792;48.726;9.248;2023-09-07T06:43:23;5.18;;;4.68;;
44130;SDS011;29792;48.726;9.248;2023-09-07T06:45:48;7.30;;;5.32;;
44130;SDS011;29792;48.726;9.248;2023-09-07T06:48:13;6.50;;;4.88;;
44130;SDS011;29792;48.726;9.248;2023-09-07T06:50:39;5.72;;;5.22;;
44130;SDS011;29792;48.726;9.248;2023-09-07T06:53:04;5.07;;;4.57;;
44130;SDS011;29792;48.726;9.248;2023-09-07T06:55:29;7.03;;;5.65;;
44130;SDS011;29792;48.726;9.248;2023-09-07T06:57:55;5.78;;;4.20;;
44130;SDS011;29792;48.726;9.248;2023-09-07T07:00:20;5.80;;;5.30;;
44130;SDS011;29792;48.726;9.248;2023-09-07T07:02:46;4.22;;;3.80;;
44130;SDS011;29792;48.726;9.248;2023-09-07T07:05:11;7.25;;;5.32;;
44130;SDS011;29792;48.726;9.248;2023-09-07T07:07:37;5.30;;;4.80;;
44130;SDS011;29792;48.726;9.248;2023-09-07T07:10:02;5.38;;;4.88;;
44130;SDS011;29792;48.726;9.248;2023-09-07T07:12:28;5.82;;;5.00;;
44130;SDS011;29792;48.726;9.248;2023-09-07T07:14:53;5.82;;;5.30;;
44130;SDS011;29792;48.726;9.248;2023-09-07T07:17:18;6.20;;;5.60;;
44130;SDS011;29792;48.726;9.248;2023-09-07T07:19:44;5.53;;;5.03;;
44130;SDS011;29792;48.726;9.248;2023-09-07T07:22:09;5.75;;;5.25;;
44130;SDS011;29792;48.726;9.248;2023-09-07T07:24:34;4.80;;;4.38;;
44130;SDS011;29792;48.726;9.248;2023-09-07T07:27:00;8.63;;;5.47;;
44130;SDS011;29792;48.726;9.248;2023-09-07T07:29:25;7.30;;;5.68;;
44130;SDS011;29792;48.726;9.248;2023-09-07T07:31:50;6.03;;;4.90;;
44130;SDS011;29792;48.726;9.248;2023-09-07T07:34:15;7.00;;;4.80;;
44130;SDS011;29792;48.726;9.248;2023-09-07T07:36:41;5.88;;;5.28;;
44130;SDS011;29792;48.726;9.248;2023-09-07T07:39:06;5.53;;;4.75;;
44130;SDS011;29792;48.726;9.248;2023-09-07T07:41:34;5.57;;;5.07;;
44130;SDS011;29792;48.726;9.248;2023-09-07T07:44:00;6.18;;;5.50;;
44130;SDS011;29792;48.726;9.248;2023-09-07T07:46:26;5.88;;;5.30;;
44130;SDS011;29792;48.726;9.248;2023-09-07T07:48:52;4.97;;;4.40;;
44130;SDS011;29792;48.726;9.248;2023-09-07T07:51:17;6.07;;;5.53;;
44130;SDS011;29792;48.726;9.248;2023-09-07T07:53:42;8.35;;;6.45;;
44130;SDS011;29792;48.726;9.248;2023-09-07T07:56:14;7.18;;;5.75;;
44130;SDS011;29792;48.726;9.248;2023-09-07T07:58:43;5.97;;;5.38;;
44130;SDS011;29792;48.726;9.248;2023-09-07T08:01:14;6.45;;;5.32;;
44130;SDS011;29792;48.726;9.248;2023-09-07T08:03:40;5.85;;;4.72;;
44130;SDS011;29792;48.726;9.248;2023-09-07T08:06:05;4.00;;;3.70;;
44130;SDS011;29792;48.726;9.248;2023-09-07T08:08:31;7.00;;;5.20;;
44130;SDS011;29792;48.726;9.248;2023-09-07T08:10:56;5.57;;;5.03;;
44130;SDS011;29792;48.726;9.248;2023-09-07T08:13:23;5.18;;;4.63;;
44130;SDS011;29792;48.726;9.248;2023-09-07T08:15:48;5.47;;;4.90;;
44130;SDS011;29792;48.726;9.248;2023-09-07T08:18:14;5.57;;;4.22;;
44130;SDS011;29792;48.726;9.248;2023-09-07T08:20:39;6.60;;;4.63;;
44130;SDS011;29792;48.726;9.248;2023-09-07T08:23:06;6.53;;;5.32;;
44130;SDS011;29792;48.726;9.248;2023-09-07T08:25:33;4.72;;;4.20;;
44130;SDS011;29792;48.726;9.248;2023-09-07T08:27:58;6.00;;;5.35;;
44130;SDS011;29792;48.726;9.248;2023-09-07T08:30:24;6.30;;;5.20;;
44130;SDS011;29792;48.726;9.248;2023-09-07T08:32:50;4.78;;;4.22;;
44130;SDS011;29792;48.726;9.248;2023-09-07T08:35:16;6.25;;;4.68;;
44130;SDS011;29792;48.726;9.248;2023-09-07T08:37:42;6.15;;;4.20;;
44130;SDS011;29792;48.726;9.248;2023-09-07T08:40:07;5.50;;;5.00;;
44130;SDS011;29792;48.726;9.248;2023-09-07T08:42:35;6.90;;;5.00;;
44130;SDS011;29792;48.726;9.248;2023-09-07T08:45:02;5.43;;;4.68;;
44130;SDS011;29792;48.726;9.248;2023-09-07T08:47:31;4.90;;;4.10;;
44130;SDS011;29792;48.726;9.248;2023-09-07T08:49:59;4.85;;;4.40;;
44130;SDS011;29792;48.726;9.248;2023-09-07T08:52:24;5.22;;;4.72;;
44130;SDS011;29792;48.726;9.248;2023-09-07T08:54:50;6.57;;;5.90;;
44130;SDS011;29792;48.726;9.248;2023-09-07T08:57:16;6.22;;;4.38;;
44130;SDS011;29792;48.726;9.248;2023-09-07T08:59:43;4.10;;;3.80;;
44130;SDS011;29792;48.726;9.248;2023-09-07T09:02:11;4.25;;;3.90;;
44130;SDS011;29792;48.726;9.248;2023-09-07T09:04:37;5.88;;;4.60;;
44130;SDS011;29792;48.726;9.248;2023-09-07T09:07:02;5.90;;;4.55;;
44130;SDS011;29792;48.726;9.248;2023-09-07T09:09:29;10.30;;;4.57;;
44130;SDS011;29792;48.726;9.248;2023-09-07T09:12:06;4.70;;;4.22;;
44130;SDS011;29792;48.726;9.248;2023-09-07T09:14:32;5.07;;;4.60;;
44130;SDS011;29792;48.726;9.248;2023-09-07T09:16:57;4.60;;;4.18;;
44130;SDS011;29792;48.726;9.248;2023-09-07T09:19:32;5.15;;;4.65;;
44130;SDS011;29792;48.726;9.248;2023-09-07T09:21:58;7.97;;;5.47;;
44130;SDS011;29792;48.726;9.248;2023-09-07T09:24:23;5.30;;;4.80;;
44130;SDS011;29792;48.726;9.248;2023-09-07T09:26:49;6.07;;;5.13;;
44130;SDS011;29792;48.726;9.248;2023-09-07T09:29:14;61.05;;;12.00;;
44130;SDS011;29792;48.726;9.248;2023-09-07T09:31:40;7.78;;;5.40;;
44130;SDS011;29792;48.726;9.248;2023-09-07T09:34:06;4.88;;;4.40;;
44130;SDS011;29792;48.726;9.248;2023-09-07T09:36:35;6.47;;;4.93;;
44130;SDS011;29792;48.726;9.248;2023-09-07T09:39:01;5.65;;;5.10;;
44130;SDS011;29792;48.726;9.248;2023-09-07T09:41:26;5.63;;;5.13;;
44130;SDS011;29792;48.726;9.248;2023-09-07T09:43:53;6.78;;;5.13;;
44130;SDS011;29792;48.726;9.248;2023-09-07T09:46:20;4.90;;;4.03;;
44130;SDS011;29792;48.726;9.248;2023-09-07T09:48:47;5.10;;;4.38;;
44130;SDS011;29792;48.726;9.248;2023-09-07T09:51:12;4.85;;;4.45;;
44130;SDS011;29792;48.726;9.248;2023-09-07T09:53:39;3.88;;;3.58;;
44130;SDS011;29792;48.726;9.248;2023-09-07T09:56:07;5.28;;;4.78;;
44130;SDS011;29792;48.726;9.248;2023-09-07T09:58:32;4.53;;;4.10;;
44130;SDS011;29792;48.726;9.248;2023-09-07T10:00:58;5.88;;;5.28;;
44130;SDS011;29792;48.726;9.248;2023-09-07T10:06:09;6.30;;;5.05;;
44130;SDS011;29792;48.726;9.248;2023-09-07T10:08:53;6.25;;;4.00;;
44130;SDS011;29792;48.726;9.248;2023-09-07T10:11:28;6.47;;;5.82;;
44130;SDS011;29792;48.726;9.248;2023-09-07T10:13:59;4.50;;;4.10;;
44130;SDS011;29792;48.726;9.248;2023-09-07T10:16:25;4.65;;;4.25;;
44130;SDS011;29792;48.726;9.248;2023-09-07T10:18:52;6.20;;;4.40;;
44130;SDS011;29792;48.726;9.248;2023-09-07T10:21:17;5.15;;;4.30;;
44130;SDS011;29792;48.726;9.248;2023-09-07T10:23:43;4.20;;;3.85;;
44130;SDS011;29792;48.726;9.248;2023-09-07T10:26:10;4.28;;;3.88;;
44130;SDS011;29792;48.726;9.248;2023-09-07T10:28:37;4.13;;;3.83;;
44130;SDS011;29792;48.726;9.248;2023-09-07T10:31:06;4.38;;;3.97;;
44130;SDS011;29792;48.726;9.248;2023-09-07T10:33:38;4.18;;;3.78;;
44130;SDS011;29792;48.726;9.248;2023-09-07T10:36:04;3.83;;;3.53;;
44130;SDS011;29792;48.726;9.248;2023-09-07T10:38:34;4.45;;;4.05;;
44130;SDS011;29792;48.726;9.248;2023-09-07T10:41:01;4.05;;;3.72;;
44130;SDS011;29792;48.726;9.248;2023-09-07T10:43:31;5.15;;;3.92;;
44130;SDS011;29792;48.726;9.248;2023-09-07T10:45:58;5.00;;;3.83;;
44130;SDS011;29792;48.726;9.248;2023-09-07T10:48:25;4.43;;;4.07;;
44130;SDS011;29792;48.726;9.248;2023-09-07T10:50:53;5.15;;;4.72;;
44130;SDS011;29792;48.726;9.248;2023-09-07T10:53:25;6.38;;;4.00;;
44130;SDS011;29792;48.726;9.248;2023-09-07T10:55:52;4.72;;;4.28;;
44130;SDS011;29792;48.726;9.248;2023-09-07T10:58:28;4.57;;;4.13;;
44130;SDS011;29792;48.726;9.248;2023-09-07T11:00:56;4.18;;;3.85;;
44130;SDS011;29792;48.726;9.248;2023-09-07T11:03:22;4.38;;;3.97;;
44130;SDS011;29792;48.726;9.248;2023-09-07T11:05:48;4.60;;;3.90;;
44130;SDS011;29792;48.726;9.248;2023-09-07T11:08:17;4.03;;;3.63;;
44130;SDS011;29792;48.726;9.248;2023-09-07T11:10:42;4.38;;;3.97;;
44130;SDS011;29792;48.726;9.248;2023-09-07T11:13:08;6.53;;;4.13;;
44130;SDS011;29792;48.726;9.248;2023-09-07T11:15:34;5.10;;;3.80;;
44130;SDS011;29792;48.726;9.248;2023-09-07T11:18:03;5.38;;;3.88;;
44130;SDS011;29792;48.726;9.248;2023-09-07T11:20:32;4.13;;;3.72;;
44130;SDS011;29792;48.726;9.248;2023-09-07T11:22:58;3.90;;;3.50;;
44130;SDS011;29792;48.726;9.248;2023-09-07T11:25:24;4.35;;;3.60;;
44130;SDS011;29792;48.726;9.248;2023-09-07T11:27:51;4.78;;;4.38;;
44130;SDS011;29792;48.726;9.248;2023-09-07T11:30:17;6.47;;;3.15;;
44130;SDS011;29792;48.726;9.248;2023-09-07T11:32:42;4.15;;;3.45;;
44130;SDS011;29792;48.726;9.248;2023-09-07T11:35:09;5.45;;;4.43;;
44130;SDS011;29792;48.726;9.248;2023-09-07T11:37:34;3.80;;;3.47;;
44130;SDS011;29792;48.726;9.248;2023-09-07T11:40:00;4.82;;;3.42;;
44130;SDS011;29792;48.726;9.248;2023-09-07T11:42:26;4.45;;;3.70;;
44130;SDS011;29792;48.726;9.248;2023-09-07T11:44:51;3.30;;;3.00;;
44130;SDS011;29792;48.726;9.248;2023-09-07T11:47:16;4.18;;;3.78;;
44130;SDS011;29792;48.726;9.248;2023-09-07T11:49:41;4.88;;;3.50;;
44130;SDS011;29792;48.726;9.248;2023-09-07T11:52:07;3.88;;;3.58;;
44130;SDS011;29792;48.726;9.248;2023-09-07T11:54:32;4.32;;;3.90;;
44130;SDS011;29792;48.726;9.248;2023-09-07T11:56:57;4.28;;;3.97;;
44130;SDS011;29792;48.726;9.248;2023-09-07T11:59:23;3.95;;;3.53;;
44130;SDS011;29792;48.726;9.248;2023-09-07T12:01:48;6.22;;;3.88;;
44130;SDS011;29792;48.726;9.248;2023-09-07T12:04:13;4.32;;;3.95;;
44130;SDS011;29792;48.726;9.248;2023-09-07T12:06:39;3.83;;;3.53;;
44130;SDS011;29792;48.726;9.248;2023-09-07T12:09:05;3.67;;;3.38;;
44130;SDS011;29792;48.726;9.248;2023-09-07T12:11:34;4.07;;;3.67;;
44130;SDS011;29792;48.726;9.248;2023-09-07T12:14:00;4.63;;;3.20;;
44130;SDS011;29792;48.726;9.248;2023-09-07T12:16:26;3.75;;;3.22;;
44130;SDS011;29792;48.726;9.248;2023-09-07T12:18:52;4.30;;;3.67;;
44130;SDS011;29792;48.726;9.248;2023-09-07T12:21:17;3.70;;;2.78;;
44130;SDS011;29792;48.726;9.248;2023-09-07T12:23:43;3.78;;;2.97;;
44130;SDS011;29792;48.726;9.248;2023-09-07T12:26:08;3.95;;;3.65;;
44130;SDS011;29792;48.726;9.248;2023-09-07T12:28:33;4.45;;;3.08;;
44130;SDS011;29792;48.726;9.248;2023-09-07T12:30:59;4.05;;;3.67;;
44130;SDS011;29792;48.726;9.248;2023-09-07T12:33:24;3.47;;;3.17;;
44130;SDS011;29792;48.726;9.248;2023-09-07T12:35:50;4.00;;;3.55;;
44130;SDS011;29792;48.726;9.248;2023-09-07T12:38:15;4.20;;;3.83;;
44130;SDS011;29792;48.726;9.248;2023-09-07T12:40:42;4.07;;;3.67;;
44130;SDS011;29792;48.726;9.248;2023-09-07T12:43:08;3.58;;;2.83;;
44130;SDS011;29792;48.726;9.248;2023-09-07T12:45:34;6.07;;;3.28;;
44130;SDS011;29792;48.726;9.248;2023-09-07T12:47:59;3.15;;;2.85;;
44130;SDS011;29792;48.726;9.248;2023-09-07T12:50:26;5.85;;;3.15;;
44130;SDS011;29792;48.726;9.248;2023-09-07T12:52:51;4.07;;;3.72;;
44130;SDS011;29792;48.726;9.248;2023-09-07T12:55:17;3.80;;;2.90;;
44130;SDS011;29792;48.726;9.248;2023-09-07T12:57:43;3.33;;;2.95;;
44130;SDS011;29792;48.726;9.248;2023-09-07T13:00:09;4.25;;;3.30;;
44130;SDS011;29792;48.726;9.248;2023-09-07T13:02:35;3.15;;;2.88;;
44130;SDS011;29792;48.726;9.248;2023-09-07T13:05:01;5.03;;;3.53;;
44130;SDS011;29792;48.726;9.248;2023-09-07T13:07:30;3.95;;;3.60;;
44130;SDS011;29792;48.726;9.248;2023-09-07T13:09:57;3.28;;;2.70;;
44130;SDS011;29792;48.726;9.248;2023-09-07T13:12:22;4.65;;;3.25;;
44130;SDS011;29792;48.726;9.248;2023-09-07T13:14:47;3.80;;;3.50;;
44130;SDS011;29792;48.726;9.248;2023-09-07T13:17:13;4.22;;;3.03;;
44130;SDS011;29792;48.726;9.248;2023-09-07T13:19:41;2.80;;;2.60;;
44130;SDS011;29792;48.726;9.248;2023-09-07T13:22:09;3.60;;;3.30;;
44130;SDS011;29792;48.726;9.248;2023-09-07T13:24:34;3.60;;;3.30;;
44130;SDS011;29792;48.726;9.248;2023-09-07T13:26:59;3.92;;;3.38;;
44130;SDS011;29792;48.726;9.248;2023-09-07T13:29:25;4.30;;;2.88;;
44130;SDS011;29792;48.726;9.248;2023-09-07T13:31:51;3.00;;;2.72;;
44130;SDS011;29792;48.726;9.248;2023-09-07T13:34:18;3.08;;;2.75;;
44130;SDS011;29792;48.726;9.248;2023-09-07T13:36:44;3.30;;;3.00;;
44130;SDS011;29792;48.726;9.248;2023-09-07T13:39:09;2.25;;;2.15;;
44130;SDS011;29792;48.726;9.248;2023-09-07T13:41:34;4.75;;;3.90;;
44130;SDS011;29792;48.726;9.248;2023-09-07T13:44:00;4.22;;;3.00;;
44130;SDS011;29792;48.726;9.248;2023-09-07T13:46:25;2.38;;;2.17;;
44130;SDS011;29792;48.726;9.248;2023-09-07T13:48:51;4.82;;;2.60;;
44130;SDS011;29792;48.726;9.248;2023-09-07T13:51:16;4.78;;;3.70;;
44130;SDS011;29792;48.726;9.248;2023-09-07T13:53:42;2.92;;;2.72;;
44130;SDS011;29792;48.726;9.248;2023-09-07T13:56:07;3.20;;;2.90;;
44130;SDS011;29792;48.726;9.248;2023-09-07T13:58:32;3.58;;;2.40;;
44130;SDS011;29792;48.726;9.248;2023-09-07T14:00:57;2.75;;;2.55;;
44130;SDS011;29792;48.726;9.248;2023-09-07T14:03:23;2.40;;;2.20;;
44130;SDS011;29792;48.726;9.248;2023-09-07T14:05:48;4.65;;;2.72;;
44130;SDS011;29792;48.726;9.248;2023-09-07T14:08:13;2.50;;;2.28;;
44130;SDS011;29792;48.726;9.248;2023-09-07T14:10:38;2.60;;;2.40;;
44130;SDS011;29792;48.726;9.248;2023-09-07T14:13:04;2.90;;;2.70;;
44130;SDS011;29792;48.726;9.248;2023-09-07T14:15:29;3.15;;;2.78;;
44130;SDS011;29792;48.726;9.248;2023-09-07T14:17:54;3.05;;;2.85;;
44130;SDS011;29792;48.726;9.248;2023-09-07T14:20:20;3.13;;;2.60;;
44130;SDS011;29792;48.726;9.248;2023-09-07T14:22:45;3.38;;;2.88;;
44130;SDS011;29792;48.726;9.248;2023-09-07T14:25:10;2.78;;;2.47;;
44130;SDS011;29792;48.726;9.248;2023-09-07T14:27:36;3.05;;;2.75;;
44130;SDS011;29792;48.726;9.248;2023-09-07T14:30:01;2.53;;;2.28;;
44130;SDS011;29792;48.726;9.248;2023-09-07T14:32:27;2.88;;;2.60;;
44130;SDS011;29792;48.726;9.248;2023-09-07T14:34:52;3.60;;;2.10;;
44130;SDS011;29792;48.726;9.248;2023-09-07T14:37:18;3.88;;;2.35;;
44130;SDS011;29792;48.726;9.248;2023-09-07T14:39:43;3.38;;;2.45;;
44130;SDS011;29792;48.726;9.248;2023-09-07T14:42:12;5.43;;;2.45;;